Time;durP1;ratioP1;P1;durP2;ratioP2;P2;SDS_P1;SDS_P2;PMS_P1;PMS_P2;Temp;Humidity;BMP_temperature;BMP_pressure;BME280_temperature;BME280_humidity;BME280_pressure;Samples;Min_cycle;Max_cycle;Signal;HPM_P1;HPM_P2
2021/07/20 00:00:27;;;;;;;12.93;7.45;;;20.80;73.10;;;;;;4937921;29;20462;-73
2021/07/20 00:02:55;;;;;;;13.82;7.85;;;20.80;73.00;;;;;;4931808;29;20023;-74
2021/07/20 00:05:23;;;;;;;13.63;7.97;;;20.80;73.10;;;;;;4925685;29;20461;-72
2021/07/20 00:07:58;;;;;;;12.90;7.88;;;20.70;72.90;;;;;;4948987;29;20063;-74
2021/07/20 00:10:35;;;;;;;12.30;7.50;;;20.70;73.00;;;;;;4936358;28;20493;-74
2021/07/20 00:13:01;;;;;;;15.50;7.88;;;20.70;72.90;;;;;;4922401;29;20024;-73
2021/07/20 00:15:27;;;;;;;13.55;7.75;;;20.70;72.80;;;;;;4928022;29;20024;-73
2021/07/20 00:17:56;;;;;;;13.77;8.13;;;20.60;72.60;;;;;;4946510;29;20043;-73
2021/07/20 00:20:23;;;;;;;12.93;7.80;;;20.60;72.70;;;;;;4921059;29;20095;-73
2021/07/20 00:22:49;;;;;;;15.02;7.22;;;20.60;72.70;;;;;;4949246;29;20020;-73
2021/07/20 00:25:15;;;;;;;12.68;7.57;;;20.60;72.80;;;;;;4941958;29;20482;-73
2021/07/20 00:27:42;;;;;;;11.48;7.38;;;20.60;73.70;;;;;;4925889;29;20035;-73
2021/07/20 00:30:09;;;;;;;12.70;7.22;;;20.60;74.00;;;;;;4948340;29;20031;-72
2021/07/20 00:32:35;;;;;;;15.07;7.90;;;20.50;73.50;;;;;;4933892;29;20083;-73
2021/07/20 00:35:02;;;;;;;12.68;7.88;;;20.50;73.80;;;;;;4939218;29;20465;-73
2021/07/20 00:37:28;;;;;;;12.65;7.07;;;20.50;74.00;;;;;;4949606;29;20473;-72
2021/07/20 00:39:53;;;;;;;13.57;7.65;;;20.40;74.20;;;;;;4953141;29;20045;-73
2021/07/20 00:42:19;;;;;;;14.70;8.05;;;20.30;75.50;;;;;;4920668;29;20087;-73
2021/07/20 00:44:45;;;;;;;13.38;7.88;;;20.20;75.60;;;;;;4937377;29;20062;-73
2021/07/20 00:47:10;;;;;;;13.43;8.25;;;20.20;75.90;;;;;;4936479;29;20364;-73
2021/07/20 00:49:36;;;;;;;12.70;8.20;;;20.20;76.20;;;;;;4926512;29;20087;-73
2021/07/20 00:52:02;;;;;;;15.32;7.97;;;20.10;76.30;;;;;;4946818;29;20106;-73
2021/07/20 00:54:28;;;;;;;14.25;7.55;;;20.00;76.40;;;;;;4937372;29;20020;-73
2021/07/20 00:56:54;;;;;;;13.48;7.85;;;20.00;76.60;;;;;;4930847;29;20083;-73
2021/07/20 00:59:20;;;;;;;14.43;8.20;;;20.00;76.70;;;;;;4942630;29;20062;-73
2021/07/20 01:01:46;;;;;;;15.38;8.23;;;19.90;77.00;;;;;;4941863;29;20035;-73
2021/07/20 01:04:12;;;;;;;13.50;8.20;;;19.80;77.00;;;;;;4948804;29;20487;-72
2021/07/20 01:06:39;;;;;;;13.68;7.60;;;19.80;77.30;;;;;;4950912;29;20063;-73
2021/07/20 01:09:05;;;;;;;14.30;7.90;;;19.70;77.80;;;;;;4934327;29;20035;-73
2021/07/20 01:11:35;;;;;;;13.75;8.65;;;19.60;78.20;;;;;;4936129;29;20051;-73
2021/07/20 01:14:03;;;;;;;19.15;8.43;;;19.50;78.70;;;;;;4952135;29;20032;-73
2021/07/20 01:16:32;;;;;;;14.00;7.97;;;19.40;79.10;;;;;;4937740;29;20031;-73
2021/07/20 01:18:59;;;;;;;13.32;8.05;;;19.40;79.10;;;;;;4930526;29;20035;-73
2021/07/20 01:21:26;;;;;;;13.10;8.30;;;19.40;79.20;;;;;;4942783;29;20027;-73
2021/07/20 01:23:52;;;;;;;15.05;8.48;;;19.40;79.00;;;;;;4943083;28;20055;-73
2021/07/20 01:26:19;;;;;;;13.13;8.35;;;19.30;79.20;;;;;;4953340;29;20042;-72
2021/07/20 01:28:46;;;;;;;12.50;8.18;;;19.30;79.20;;;;;;4923620;29;20024;-73
2021/07/20 01:31:16;;;;;;;14.88;8.00;;;19.30;79.30;;;;;;4956155;29;20027;-73
2021/07/20 01:33:46;;;;;;;13.95;8.25;;;19.20;79.50;;;;;;4945885;29;20035;-73
2021/07/20 01:36:15;;;;;;;15.90;8.40;;;19.20;79.20;;;;;;4937589;29;20032;-73
2021/07/20 01:38:42;;;;;;;16.25;8.32;;;19.20;79.20;;;;;;4943873;29;20376;-73
2021/07/20 01:41:11;;;;;;;15.00;8.55;;;19.20;79.00;;;;;;4950003;29;20047;-73
2021/07/20 01:43:41;;;;;;;16.48;8.45;;;19.20;79.00;;;;;;4936813;29;20032;-73
2021/07/20 01:46:08;;;;;;;13.55;8.32;;;19.00;79.60;;;;;;4933483;29;20027;-73
2021/07/20 01:48:37;;;;;;;14.95;8.38;;;18.90;80.40;;;;;;4940339;29;20038;-73
2021/07/20 01:51:03;;;;;;;13.43;8.18;;;18.80;80.70;;;;;;4933085;29;20031;-73
2021/07/20 01:53:31;;;;;;;14.10;8.23;;;18.80;80.70;;;;;;4929014;29;20019;-73
2021/07/20 01:56:00;;;;;;;15.88;8.52;;;18.70;80.90;;;;;;4943038;29;20087;-73
2021/07/20 01:58:25;;;;;;;15.38;8.73;;;18.60;81.60;;;;;;4935725;29;20114;-73
2021/07/20 02:00:53;;;;;;;15.75;8.52;;;18.50;82.00;;;;;;4940415;29;20529;-73
2021/07/20 02:08:47;;;;;;;18.98;8.90;;;18.60;82.30;;;;;;4943735;29;20042;-73
2021/07/20 02:11:23;;;;;;;15.20;8.57;;;18.50;82.50;;;;;;4931606;29;20024;-73
2021/07/20 02:13:55;;;;;;;16.83;8.85;;;18.40;82.70;;;;;;4948158;29;20037;-74
2021/07/20 02:16:27;;;;;;;17.33;8.73;;;18.40;82.80;;;;;;4923154;29;20042;-73
2021/07/20 02:19:00;;;;;;;17.73;9.60;;;18.30;83.30;;;;;;4933342;29;20106;-72
2021/07/20 02:21:27;;;;;;;13.15;8.48;;;18.30;83.80;;;;;;4927916;28;20457;-73
2021/07/20 02:23:54;;;;;;;15.93;8.80;;;18.30;83.60;;;;;;4925632;29;20086;-73
2021/07/20 02:26:25;;;;;;;15.38;8.52;;;18.40;83.40;;;;;;4934829;29;20031;-73
2021/07/20 02:28:53;;;;;;;14.77;8.23;;;18.50;82.90;;;;;;4939635;29;20108;-74
2021/07/20 02:31:20;;;;;;;15.55;8.35;;;18.50;82.60;;;;;;4930819;29;20026;-73
2021/07/20 02:33:48;;;;;;;12.93;8.23;;;18.50;82.60;;;;;;4929838;29;20531;-73
2021/07/20 02:36:14;;;;;;;13.95;8.00;;;18.40;82.30;;;;;;4937529;29;20093;-73
2021/07/20 02:38:43;;;;;;;16.40;9.10;;;18.40;82.30;;;;;;4955348;29;20057;-73
2021/07/20 02:41:11;;;;;;;14.80;7.95;;;18.40;82.30;;;;;;4948077;29;20083;-73
2021/07/20 02:43:39;;;;;;;14.60;8.73;;;18.40;82.40;;;;;;4945968;29;20086;-73
2021/07/20 02:46:08;;;;;;;16.58;8.88;;;18.40;82.20;;;;;;4923846;29;20039;-73
2021/07/20 02:48:39;;;;;;;14.68;8.32;;;18.30;82.50;;;;;;4934665;29;20503;-73
2021/07/20 02:51:08;;;;;;;13.90;7.80;;;18.20;83.50;;;;;;4924048;29;20114;-73
2021/07/20 02:53:39;;;;;;;14.35;8.77;;;18.20;83.40;;;;;;4945306;29;20070;-73
2021/07/20 02:56:07;;;;;;;16.10;8.87;;;18.20;83.50;;;;;;4931880;29;20028;-73
2021/07/20 02:58:35;;;;;;;14.82;7.45;;;18.10;83.40;;;;;;4938880;29;20075;-73
2021/07/20 03:01:01;;;;;;;14.93;8.68;;;18.10;83.60;;;;;;4948655;29;20524;-72
2021/07/20 03:03:27;;;;;;;14.18;8.05;;;18.10;83.70;;;;;;4944367;29;20023;-73
2021/07/20 03:05:56;;;;;;;17.65;8.43;;;18.10;83.70;;;;;;4924611;29;20130;-73
2021/07/20 03:08:27;;;;;;;14.45;8.30;;;18.00;83.60;;;;;;4934254;29;20388;-73
2021/07/20 03:10:54;;;;;;;16.27;8.88;;;17.90;84.40;;;;;;4949920;29;20031;-73
2021/07/20 03:13:20;;;;;;;16.02;9.30;;;17.70;85.10;;;;;;4943197;29;20027;-73
2021/07/20 03:15:46;;;;;;;19.95;8.73;;;17.80;85.20;;;;;;4943249;29;20023;-73
2021/07/20 03:18:13;;;;;;;15.10;9.25;;;17.80;84.90;;;;;;4931784;29;20440;-73
2021/07/20 03:20:40;;;;;;;14.98;9.20;;;17.70;85.30;;;;;;4921628;29;20389;-73
2021/07/20 03:23:07;;;;;;;15.75;8.93;;;17.60;86.60;;;;;;4930827;29;20031;-73
2021/07/20 03:25:33;;;;;;;17.10;8.73;;;17.60;86.40;;;;;;4935441;29;20029;-73
2021/07/20 03:28:00;;;;;;;18.17;9.60;;;17.50;86.20;;;;;;4930209;29;20038;-73
2021/07/20 03:30:29;;;;;;;14.02;8.15;;;17.50;86.50;;;;;;4921657;29;20043;-73
2021/07/20 03:32:55;;;;;;;17.60;8.95;;;17.50;87.00;;;;;;4949143;29;20027;-73
2021/07/20 03:35:22;;;;;;;14.05;8.10;;;17.60;86.40;;;;;;4926020;29;20030;-73
2021/07/20 03:37:48;;;;;;;15.02;8.60;;;17.60;86.10;;;;;;4932746;29;20046;-75
2021/07/20 03:40:14;;;;;;;19.40;8.50;;;17.50;86.10;;;;;;4938294;29;20038;-73
2021/07/20 03:42:41;;;;;;;13.65;8.57;;;17.50;86.50;;;;;;4936845;29;20027;-73
2021/07/20 03:45:09;;;;;;;14.18;8.70;;;17.40;86.50;;;;;;4947204;29;20027;-73
2021/07/20 03:47:36;;;;;;;14.80;9.27;;;17.40;86.50;;;;;;4945004;29;20377;-73
2021/07/20 03:50:04;;;;;;;14.60;8.50;;;17.50;86.50;;;;;;4940218;29;20027;-73
2021/07/20 03:52:31;;;;;;;18.00;9.18;;;17.50;86.30;;;;;;4933384;29;20039;-73
2021/07/20 03:54:58;;;;;;;14.93;8.95;;;17.50;86.20;;;;;;4922038;29;20038;-73
2021/07/20 03:57:25;;;;;;;14.25;8.85;;;17.50;86.10;;;;;;4928660;29;20440;-73
2021/07/20 03:59:53;;;;;;;14.77;7.97;;;17.40;86.30;;;;;;4928847;29;20063;-74
2021/07/20 04:02:22;;;;;;;17.00;9.15;;;17.50;86.10;;;;;;4953892;29;20477;-73
2021/07/20 04:04:51;;;;;;;13.98;8.32;;;17.50;85.70;;;;;;4917638;29;20023;-74
2021/07/20 04:07:20;;;;;;;17.63;9.27;;;17.50;85.90;;;;;;4941886;29;20039;-73
2021/07/20 04:09:48;;;;;;;18.75;9.10;;;17.50;86.00;;;;;;4936423;29;20028;-73
2021/07/20 04:12:15;;;;;;;18.00;9.25;;;17.50;85.60;;;;;;4922078;29;20358;-73
2021/07/20 04:14:45;;;;;;;16.05;9.13;;;17.50;85.80;;;;;;4950622;29;20039;-74
2021/07/20 04:17:13;;;;;;;17.70;8.73;;;17.50;85.70;;;;;;4941024;29;20023;-73
2021/07/20 04:19:40;;;;;;;14.02;8.30;;;17.40;85.80;;;;;;4926476;29;20032;-73
2021/07/20 04:22:06;;;;;;;14.95;8.70;;;17.40;86.10;;;;;;4930598;29;20523;-73
2021/07/20 04:24:33;;;;;;;16.60;8.50;;;17.50;86.10;;;;;;4920861;29;20028;-73
2021/07/20 04:27:01;;;;;;;15.82;8.65;;;17.40;85.60;;;;;;4948151;29;20035;-73
2021/07/20 04:29:27;;;;;;;16.13;8.68;;;17.50;86.00;;;;;;4935033;29;20106;-73
2021/07/20 04:31:56;;;;;;;17.02;8.55;;;17.40;85.70;;;;;;4946252;29;20028;-74
2021/07/20 04:34:22;;;;;;;15.38;9.00;;;17.40;85.30;;;;;;4937886;29;20028;-73
2021/07/20 04:36:49;;;;;;;16.98;9.13;;;17.50;85.90;;;;;;4949946;29;20038;-73
2021/07/20 04:39:15;;;;;;;13.15;8.13;;;17.50;86.10;;;;;;4924128;29;20043;-73
2021/07/20 04:41:42;;;;;;;19.75;8.95;;;17.50;86.10;;;;;;4936489;29;20031;-73
2021/07/20 04:44:08;;;;;;;17.02;8.40;;;17.50;86.10;;;;;;4938694;29;20039;-73
2021/07/20 04:46:34;;;;;;;13.70;8.30;;;17.50;86.00;;;;;;4933286;29;20045;-73
2021/07/20 04:49:04;;;;;;;14.40;8.15;;;17.50;86.20;;;;;;4939274;29;20023;-73
2021/07/20 04:51:32;;;;;;;18.23;8.95;;;17.60;86.10;;;;;;4924797;29;20028;-73
2021/07/20 04:53:59;;;;;;;16.90;8.38;;;17.50;86.10;;;;;;4946541;29;20029;-73
2021/07/20 04:56:25;;;;;;;16.65;8.80;;;17.60;86.10;;;;;;4924295;29;20518;-73
2021/07/20 04:58:50;;;;;;;18.10;9.38;;;17.60;86.40;;;;;;4940007;29;20121;-75
2021/07/20 05:01:16;;;;;;;14.82;8.70;;;17.70;85.90;;;;;;4957345;29;20059;-72
2021/07/20 05:03:43;;;;;;;13.98;7.60;;;17.70;85.90;;;;;;4946662;29;20116;-73
2021/07/20 05:06:10;;;;;;;12.75;8.07;;;17.70;85.40;;;;;;4951499;29;20027;-73
2021/07/20 05:08:51;;;;;;;13.20;7.97;;;17.80;85.20;;;;;;5146350;27;20373;-73
2021/07/20 05:11:20;;;;;;;15.45;8.77;;;17.80;85.60;;;;;;5098837;28;20106;-73
2021/07/20 05:13:46;;;;;;;13.77;7.97;;;17.80;86.30;;;;;;5130227;28;20026;-72
2021/07/20 05:16:12;;;;;;;14.73;8.02;;;17.90;86.30;;;;;;5095666;28;20030;-73
2021/07/20 05:18:39;;;;;;;14.63;8.45;;;18.00;85.30;;;;;;5126678;28;20102;-73
2021/07/20 05:21:05;;;;;;;16.60;9.32;;;17.90;85.70;;;;;;5091029;28;20043;-72
2021/07/20 05:23:33;;;;;;;14.63;8.88;;;17.90;86.20;;;;;;5101049;28;20016;-72
2021/07/20 05:25:59;;;;;;;18.23;9.85;;;17.90;86.40;;;;;;5111150;28;20034;-72
2021/07/20 05:28:27;;;;;;;16.35;8.52;;;17.90;86.30;;;;;;5094445;28;20031;-72
2021/07/20 05:30:58;;;;;;;17.20;9.43;;;17.90;86.60;;;;;;5106066;28;20030;-76
2021/07/20 05:33:24;;;;;;;14.60;8.93;;;18.00;86.50;;;;;;5091141;28;20089;-72
2021/07/20 05:35:55;;;;;;;14.93;8.73;;;18.00;84.90;;;;;;5121657;28;20093;-75
2021/07/20 05:38:22;;;;;;;14.32;7.85;;;18.10;85.00;;;;;;5106714;28;20028;-73
2021/07/20 05:40:48;;;;;;;19.08;8.38;;;18.20;84.70;;;;;;5129423;28;20042;-72
2021/07/20 05:43:14;;;;;;;14.10;8.93;;;18.20;84.00;;;;;;5110802;28;20026;-72
2021/07/20 05:45:42;;;;;;;14.32;8.63;;;18.30;84.00;;;;;;5118568;28;20035;-72
2021/07/20 05:48:08;;;;;;;17.38;8.80;;;18.20;83.50;;;;;;5123281;28;20502;-72
2021/07/20 05:50:36;;;;;;;18.88;9.00;;;18.30;83.50;;;;;;5112299;28;20028;-72
2021/07/20 05:53:02;;;;;;;16.63;9.05;;;18.30;83.20;;;;;;5122922;28;20016;-72
2021/07/20 05:55:28;;;;;;;18.02;9.35;;;18.20;83.70;;;;;;5118515;28;20026;-72
2021/07/20 05:57:57;;;;;;;16.92;8.93;;;18.30;83.90;;;;;;5097154;28;20028;-75
2021/07/20 06:00:26;;;;;;;18.23;9.10;;;18.30;83.30;;;;;;5125789;28;20103;-72
2021/07/20 06:02:53;;;;;;;13.80;8.60;;;18.30;83.90;;;;;;5112953;28;20031;-74
2021/07/20 06:05:21;;;;;;;15.93;8.40;;;18.40;84.40;;;;;;5110553;28;20019;-72
2021/07/20 06:07:47;;;;;;;14.80;8.45;;;18.40;83.70;;;;;;5128628;28;20475;-72
2021/07/20 06:10:18;;;;;;;16.15;8.95;;;18.40;84.00;;;;;;5128623;28;20027;-72
2021/07/20 06:12:44;;;;;;;17.52;9.13;;;18.40;83.50;;;;;;5125932;28;20023;-72
2021/07/20 06:15:11;;;;;;;15.82;8.35;;;18.40;83.20;;;;;;5115048;28;20277;-72
2021/07/20 06:17:37;;;;;;;18.52;9.45;;;18.40;83.20;;;;;;5099852;28;20454;-72
2021/07/20 06:20:04;;;;;;;16.00;9.00;;;18.50;82.80;;;;;;5091322;28;20118;-73
2021/07/20 06:22:32;;;;;;;14.63;8.27;;;18.50;83.10;;;;;;5106229;28;20425;-73
2021/07/20 06:24:59;;;;;;;14.88;8.60;;;18.60;82.80;;;;;;5109352;28;20016;-72
2021/07/20 06:27:27;;;;;;;14.63;7.97;;;18.60;82.20;;;;;;5085753;28;20031;-73
2021/07/20 06:29:57;;;;;;;16.25;8.07;;;18.60;81.10;;;;;;5114779;28;20111;-73
2021/07/20 06:32:25;;;;;;;11.95;7.32;;;18.60;81.20;;;;;;5114772;28;20067;-72
2021/07/20 06:34:51;;;;;;;14.98;7.93;;;18.60;81.10;;;;;;5080650;28;20067;-73
2021/07/20 06:37:18;;;;;;;14.45;8.40;;;18.60;80.70;;;;;;5109969;28;20035;-74
2021/07/20 06:39:45;;;;;;;12.18;7.55;;;18.60;81.20;;;;;;5115287;28;20028;-72
2021/07/20 06:42:12;;;;;;;15.07;8.18;;;18.60;81.10;;;;;;5096089;28;20093;-72
2021/07/20 06:44:40;;;;;;;14.70;7.95;;;18.60;80.80;;;;;;5079787;28;20020;-72
2021/07/20 06:47:08;;;;;;;16.15;8.40;;;18.70;81.50;;;;;;5089068;28;20035;-72
2021/07/20 06:49:35;;;;;;;15.38;8.60;;;18.70;81.60;;;;;;5093774;28;20472;-72
2021/07/20 06:52:04;;;;;;;15.73;7.70;;;18.80;81.60;;;;;;5089740;28;20026;-72
2021/07/20 06:54:30;;;;;;;15.18;8.40;;;18.70;81.10;;;;;;5097562;28;20024;-72
2021/07/20 06:56:59;;;;;;;18.02;7.88;;;18.70;81.70;;;;;;5090585;28;20020;-73
2021/07/20 06:59:26;;;;;;;13.68;7.70;;;18.80;81.50;;;;;;5094192;28;20060;-73
2021/07/20 07:01:52;;;;;;;13.88;8.20;;;18.80;81.20;;;;;;5106334;28;20023;-74
2021/07/20 07:04:22;;;;;;;14.50;8.18;;;18.80;81.10;;;;;;5097614;28;20024;-73
2021/07/20 07:06:50;;;;;;;15.27;8.10;;;18.80;81.50;;;;;;5079401;28;20061;-72
2021/07/20 07:09:17;;;;;;;18.23;8.38;;;18.90;81.70;;;;;;5093488;28;20038;-72
2021/07/20 07:11:44;;;;;;;14.25;8.48;;;18.90;81.00;;;;;;5084064;28;20024;-72
2021/07/20 07:14:12;;;;;;;12.48;8.00;;;19.00;81.50;;;;;;5090433;28;20031;-72
2021/07/20 07:16:40;;;;;;;13.88;7.43;;;19.00;81.50;;;;;;5079195;28;20075;-72
2021/07/20 07:19:08;;;;;;;13.75;7.63;;;19.00;80.80;;;;;;5107232;28;20023;-72
2021/07/20 07:21:35;;;;;;;14.65;7.72;;;19.00;80.90;;;;;;5104182;28;20011;-72
2021/07/20 07:24:01;;;;;;;16.85;8.85;;;19.10;80.70;;;;;;5099612;28;20017;-72
2021/07/20 07:26:27;;;;;;;18.70;8.45;;;19.10;81.40;;;;;;5110929;28;20031;-72
2021/07/20 07:28:54;;;;;;;15.88;8.20;;;19.20;80.90;;;;;;5097720;28;20524;-73
2021/07/20 07:31:20;;;;;;;13.18;7.60;;;19.10;80.10;;;;;;5104599;28;20016;-72
2021/07/20 07:33:46;;;;;;;16.48;8.60;;;19.20;80.20;;;;;;5087539;28;20026;-72
2021/07/20 07:36:15;;;;;;;15.90;8.32;;;19.20;80.40;;;;;;5079664;28;20356;-72
2021/07/20 07:38:44;;;;;;;17.08;8.55;;;19.20;80.50;;;;;;5100579;28;20065;-73
2021/07/20 07:41:10;;;;;;;12.95;7.93;;;19.30;80.50;;;;;;5106523;28;20031;-72
2021/07/20 07:43:38;;;;;;;15.40;7.65;;;19.30;80.10;;;;;;5085855;28;20020;-73
2021/07/20 07:46:05;;;;;;;16.15;7.38;;;19.30;80.10;;;;;;5098658;28;20020;-72
2021/07/20 07:48:36;;;;;;;13.27;7.53;;;19.40;80.70;;;;;;5110125;28;20031;-73
2021/07/20 07:51:04;;;;;;;13.82;8.25;;;19.40;79.60;;;;;;5080696;28;20020;-72
2021/07/20 07:53:30;;;;;;;16.27;7.88;;;19.40;79.70;;;;;;5085741;28;20377;-73
2021/07/20 07:55:56;;;;;;;15.05;7.07;;;19.50;79.60;;;;;;5087965;28;20442;-72
2021/07/20 07:58:28;;;;;;;16.45;8.55;;;19.50;79.50;;;;;;5096712;28;20044;-73
2021/07/20 08:00:55;;;;;;;13.65;6.90;;;19.50;79.00;;;;;;5090102;28;20468;-73
2021/07/20 08:03:22;;;;;;;12.43;7.55;;;19.50;79.40;;;;;;5101709;28;20060;-73
2021/07/20 08:05:49;;;;;;;14.52;7.78;;;19.60;79.20;;;;;;5100900;28;20430;-72
2021/07/20 08:08:17;;;;;;;15.27;7.45;;;19.70;78.90;;;;;;5090052;28;20059;-72
2021/07/20 08:10:44;;;;;;;16.15;8.00;;;19.70;79.20;;;;;;5091681;28;20020;-72
2021/07/20 08:13:12;;;;;;;14.52;7.90;;;19.80;79.60;;;;;;5099356;28;20022;-72
2021/07/20 08:15:38;;;;;;;15.65;7.32;;;19.80;79.20;;;;;;5084209;28;20047;-73
2021/07/20 08:18:05;;;;;;;13.52;7.18;;;19.90;78.20;;;;;;5106584;28;20028;-72
2021/07/20 08:20:32;;;;;;;14.23;7.30;;;19.90;77.80;;;;;;5078059;28;20482;-72
2021/07/20 08:22:57;;;;;;;12.52;7.15;;;19.90;77.90;;;;;;5107375;28;20024;-72
2021/07/20 08:25:31;;;;;;;14.85;8.18;;;19.90;77.70;;;;;;5083453;28;20022;-72
2021/07/20 08:28:14;;;;;;;13.88;7.22;;;19.90;77.50;;;;;;5081097;28;20028;-73
2021/07/20 08:30:42;;;;;;;12.68;7.22;;;20.00;76.60;;;;;;5091416;28;20070;-73
2021/07/20 08:33:17;;;;;;;13.23;6.25;;;20.00;76.70;;;;;;5098492;28;20069;-73
2021/07/20 08:35:44;;;;;;;11.63;6.45;;;20.00;74.70;;;;;;5113028;28;20028;-74
2021/07/20 08:38:13;;;;;;;11.65;6.63;;;20.10;74.20;;;;;;5097063;28;20477;-78
2021/07/20 08:40:42;;;;;;;11.80;7.05;;;20.00;74.50;;;;;;5094482;28;20031;-79
2021/07/20 08:43:24;;;;;;;14.40;7.03;;;20.10;75.10;;;;;;5088124;28;20020;-78
2021/07/20 08:46:00;;;;;;;11.68;6.72;;;20.10;76.20;;;;;;5087678;28;20028;-80
2021/07/20 08:49:04;;;;;;;13.88;7.43;;;20.10;75.40;;;;;;5078057;28;20024;-73
2021/07/20 08:52:07;;;;;;;13.07;7.50;;;20.10;75.60;;;;;;5103297;28;20084;-74
2021/07/20 08:54:55;;;;;;;13.80;7.30;;;20.20;75.50;;;;;;5091256;28;20023;-74
2021/07/20 08:57:53;;;;;;;15.23;8.10;;;20.20;75.20;;;;;;5101095;28;20024;-74
2021/07/20 09:00:33;;;;;;;13.23;7.43;;;20.20;76.10;;;;;;5093318;28;20028;-72
2021/07/20 09:03:32;;;;;;;17.58;7.60;;;20.30;76.00;;;;;;5097501;28;20025;-73
2021/07/20 09:06:18;;;;;;;14.23;7.20;;;20.30;75.20;;;;;;5080686;28;20021;-73
2021/07/20 09:09:02;;;;;;;13.40;6.95;;;20.30;75.50;;;;;;5093865;28;20097;-72
2021/07/20 09:11:41;;;;;;;12.77;7.45;;;20.30;73.60;;;;;;5085036;28;20016;-75
2021/07/20 09:14:44;;;;;;;15.05;7.40;;;20.30;73.40;;;;;;5106974;28;20022;-72
2021/07/20 09:17:38;;;;;;;11.02;6.57;;;20.40;74.50;;;;;;5085003;28;20032;-72
2021/07/20 09:20:07;;;;;;;12.18;7.25;;;20.40;74.80;;;;;;5096350;28;20040;-72
2021/07/20 09:22:40;;;;;;;14.95;7.60;;;20.50;74.10;;;;;;5090879;28;20031;-74
2021/07/20 09:25:13;;;;;;;15.50;7.50;;;20.50;74.20;;;;;;5086837;28;20024;-73
2021/07/20 09:27:56;;;;;;;14.85;7.40;;;20.60;73.80;;;;;;5088261;28;20434;-73
2021/07/20 09:30:28;;;;;;;19.25;7.20;;;20.60;73.40;;;;;;5087584;28;20015;-72
2021/07/20 09:33:05;;;;;;;11.10;7.07;;;20.60;74.10;;;;;;5109540;28;20028;-73
2021/07/20 09:35:59;;;;;;;15.20;7.20;;;20.60;73.80;;;;;;5094119;28;20080;-73
2021/07/20 09:38:55;;;;;;;11.43;6.93;;;20.60;72.90;;;;;;5108201;28;20031;-74
2021/07/20 09:41:33;;;;;;;14.27;7.78;;;20.70;73.70;;;;;;5112536;28;20024;-75
2021/07/20 09:44:10;;;;;;;16.52;7.35;;;20.70;72.80;;;;;;5080144;28;20031;-73
2021/07/20 09:47:02;;;;;;;13.65;7.28;;;20.80;72.80;;;;;;5108745;28;20042;-73
2021/07/20 09:49:48;;;;;;;;;;;20.90;71.90;;;;;;5087459;28;20094;-73
2021/07/20 09:52:28;;;;;;;15.13;7.38;;;20.90;70.70;;;;;;5038007;28;19911;-73
2021/07/20 09:55:19;;;;;;;12.52;6.88;;;21.00;71.10;;;;;;5081182;28;20100;-73
2021/07/20 09:57:47;;;;;;;13.82;7.18;;;21.00;70.40;;;;;;5086057;28;20468;-73
2021/07/20 10:00:18;;;;;;;12.38;7.00;;;21.00;70.20;;;;;;5111317;28;20105;-74
2021/07/20 10:02:44;;;;;;;15.07;6.97;;;21.00;69.50;;;;;;5099328;28;20107;-74
2021/07/20 10:05:31;;;;;;;12.95;7.28;;;21.10;69.00;;;;;;5096200;28;20111;-74
2021/07/20 10:08:03;;;;;;;21.17;10.68;;;21.10;68.30;;;;;;5094395;28;20143;-77
2021/07/20 10:10:59;;;;;;;15.38;7.65;;;21.10;68.20;;;;;;5106438;28;20016;-74
2021/07/20 10:13:32;;;;;;;13.02;6.82;;;21.10;66.40;;;;;;5088815;28;20041;-74
2021/07/20 10:16:10;;;;;;;11.35;6.78;;;21.20;67.60;;;;;;5087386;28;20016;-74
2021/07/20 10:19:33;;;;;;;16.20;7.57;;;21.20;67.80;;;;;;5105993;28;20028;-75
2021/07/20 10:22:00;;;;;;;14.07;7.05;;;21.30;67.20;;;;;;5024426;28;20037;-74
2021/07/20 10:24:29;;;;;;;12.55;7.20;;;21.30;66.50;;;;;;5007354;28;20061;-74
2021/07/20 10:27:02;;;;;;;16.52;7.60;;;21.30;66.60;;;;;;5072854;28;20040;-73
2021/07/20 10:29:48;;;;;;;16.25;6.90;;;21.30;66.60;;;;;;5089881;28;20048;-73
2021/07/20 10:32:32;;;;;;;11.52;7.07;;;21.40;66.80;;;;;;5089706;28;20024;-74
2021/07/20 10:35:03;;;;;;;11.18;6.95;;;21.40;66.40;;;;;;5076566;28;20418;-75
2021/07/20 10:37:31;;;;;;;13.15;7.40;;;21.40;66.20;;;;;;5086268;28;20027;-74
2021/07/20 10:40:12;;;;;;;12.75;6.80;;;21.50;65.80;;;;;;5096820;28;20020;-74
2021/07/20 10:42:57;;;;;;;14.98;6.82;;;21.50;64.70;;;;;;5094683;28;20053;-76
2021/07/20 10:45:24;;;;;;;12.25;7.05;;;21.50;64.30;;;;;;5087373;28;20040;-75
2021/07/20 10:48:10;;;;;;;13.68;7.40;;;21.50;64.10;;;;;;5107446;28;20070;-73
2021/07/20 10:51:02;;;;;;;10.63;6.72;;;21.60;63.80;;;;;;5080185;28;20025;-73
2021/07/20 10:53:33;;;;;;;12.10;7.28;;;21.60;63.60;;;;;;5097006;28;20038;-73
2021/07/20 10:56:08;;;;;;;13.15;7.18;;;21.60;64.00;;;;;;5100757;28;20028;-72
2021/07/20 10:58:51;;;;;;;14.15;7.30;;;21.70;63.80;;;;;;5096536;28;20032;-73
2021/07/20 11:01:20;;;;;;;14.82;7.47;;;21.70;63.10;;;;;;5106410;28;20032;-73
2021/07/20 11:03:55;;;;;;;13.05;7.22;;;21.70;61.80;;;;;;5106523;28;20031;-73
2021/07/20 11:06:22;;;;;;;13.50;7.13;;;21.80;61.80;;;;;;5096975;28;20055;-73
2021/07/20 11:08:53;;;;;;;10.48;6.63;;;21.80;63.10;;;;;;5096136;28;20043;-73
2021/07/20 11:11:25;;;;;;;12.80;7.60;;;21.80;62.50;;;;;;5106497;28;20051;-72
2021/07/20 11:13:54;;;;;;;13.38;7.25;;;21.80;62.20;;;;;;5088735;28;20034;-72
2021/07/20 11:16:21;;;;;;;11.38;6.95;;;21.80;62.20;;;;;;5079069;28;20024;-72
2021/07/20 11:18:51;;;;;;;14.80;7.15;;;21.90;63.80;;;;;;5079771;28;20026;-72
2021/07/20 11:21:21;;;;;;;13.68;7.25;;;22.00;63.30;;;;;;5087976;28;20017;-72
2021/07/20 11:23:48;;;;;;;12.82;7.03;;;22.00;62.30;;;;;;5076025;28;20081;-72
2021/07/20 11:26:17;;;;;;;13.32;6.93;;;22.00;60.80;;;;;;5091302;28;20065;-72
2021/07/20 11:28:44;;;;;;;14.60;6.63;;;22.10;60.30;;;;;;5097344;28;20051;-73
2021/07/20 11:31:21;;;;;;;11.82;7.32;;;22.10;59.20;;;;;;5113625;28;20465;-72
2021/07/20 11:33:53;;;;;;;13.60;7.40;;;22.20;59.70;;;;;;5101859;28;20031;-73
2021/07/20 11:36:25;;;;;;;15.20;7.55;;;22.20;59.30;;;;;;5091905;28;20460;-73
2021/07/20 11:38:52;;;;;;;;;;;22.20;59.20;;;;;;5092840;28;20028;-73
2021/07/20 11:41:34;;;;;;;13.43;6.72;;;22.20;58.70;;;;;;5113693;28;20394;-73
2021/07/20 11:44:23;;;;;;;12.55;7.00;;;22.30;59.10;;;;;;5081503;28;20474;-73
2021/07/20 11:47:14;;;;;;;10.52;5.88;;;22.30;58.60;;;;;;5079336;28;20027;-73
2021/07/20 11:49:56;;;;;;;10.93;6.10;;;22.40;57.20;;;;;;5114104;28;20032;-73
2021/07/20 11:52:38;;;;;;;15.48;7.00;;;22.40;57.70;;;;;;5078389;28;20028;-74
2021/07/20 11:55:26;;;;;;;12.65;6.43;;;22.50;58.20;;;;;;5099182;28;20016;-73
2021/07/20 11:58:00;;;;;;;11.90;6.00;;;22.50;57.60;;;;;;5082858;28;20042;-73
2021/07/20 12:00:29;;;;;;;12.13;6.35;;;22.50;58.20;;;;;;5075375;28;20486;-73
2021/07/20 12:03:32;;;;;;;12.65;6.68;;;22.60;58.90;;;;;;5080137;28;20019;-72
2021/07/20 12:06:01;;;;;;;12.00;6.60;;;22.70;57.80;;;;;;5081647;28;20487;-77
2021/07/20 12:08:56;;;;;;;10.43;6.30;;;22.70;57.90;;;;;;5092406;28;20059;-75
2021/07/20 12:11:25;;;;;;;12.05;6.53;;;22.70;58.40;;;;;;5108700;28;20031;-75
2021/07/20 12:13:51;;;;;;;14.57;6.43;;;22.80;58.30;;;;;;5083640;28;20480;-75
2021/07/20 12:16:17;;;;;;;12.45;6.88;;;22.90;58.30;;;;;;5112391;28;20054;-75
2021/07/20 12:18:54;;;;;;;11.68;6.85;;;23.00;59.50;;;;;;5094847;28;20513;-75
2021/07/20 12:21:23;;;;;;;10.40;6.25;;;23.00;58.00;;;;;;5108761;28;20028;-75
2021/07/20 12:23:52;;;;;;;10.65;6.00;;;23.00;57.80;;;;;;5094302;28;20098;-76
2021/07/20 12:26:22;;;;;;;12.95;6.25;;;23.10;58.00;;;;;;5094172;28;20479;-75
2021/07/20 12:28:49;;;;;;;13.55;6.22;;;23.20;57.10;;;;;;5084007;28;20043;-75
2021/07/20 12:31:16;;;;;;;12.30;6.50;;;23.20;56.90;;;;;;5088566;28;20421;-75
2021/07/20 12:33:45;;;;;;;11.95;6.35;;;23.30;56.10;;;;;;5094570;28;20453;-76
2021/07/20 12:36:12;;;;;;;9.73;6.28;;;23.40;57.00;;;;;;5112574;28;20019;-76
2021/07/20 12:38:38;;;;;;;13.63;5.75;;;23.40;56.60;;;;;;5112980;28;20035;-76
2021/07/20 12:41:13;;;;;;;12.15;6.78;;;23.40;57.10;;;;;;5112633;28;20024;-75
2021/07/20 12:43:43;;;;;;;12.55;6.60;;;23.50;59.00;;;;;;5106229;28;20020;-75
2021/07/20 12:46:10;;;;;;;10.70;6.50;;;23.50;56.20;;;;;;5085063;28;20472;-75
2021/07/20 12:48:45;;;;;;;10.70;5.93;;;23.50;55.70;;;;;;5085633;28;20024;-73
2021/07/20 12:51:12;;;;;;;10.38;6.30;;;23.50;57.00;;;;;;5077093;28;20032;-75
2021/07/20 12:53:39;;;;;;;9.68;5.68;;;23.60;55.50;;;;;;5092549;28;20392;-75
2021/07/20 12:56:05;;;;;;;11.65;6.22;;;23.60;57.80;;;;;;5092338;28;20443;-76
2021/07/20 12:58:30;;;;;;;11.95;6.10;;;23.70;56.80;;;;;;5074721;28;20028;-75
2021/07/20 13:00:58;;;;;;;12.25;5.82;;;23.80;55.80;;;;;;5097046;28;20399;-75